Time;durP1;ratioP1;P1;durP2;ratioP2;P2;SDS_P1;SDS_P2;PMS_P1;PMS_P2;Temp;Humidity;BMP_temperature;BMP_pressure;BME280_temperature;BME280_humidity;BME280_pressure;Samples;Min_cycle;Max_cycle;Signal;HPM_P1;HPM_P2
2023/03/20 00:00:51;;;;;;;4.32;2.58;;;11.20;99.90;;;;;;5036050;28;20025;-67
2023/03/20 00:03:17;;;;;;;3.97;2.45;;;11.30;99.90;;;;;;5036706;28;20556;-67
2023/03/20 00:05:42;;;;;;;3.05;2.33;;;11.30;99.90;;;;;;5033149;28;20120;-68
2023/03/20 00:08:08;;;;;;;3.33;2.13;;;11.30;99.90;;;;;;5030302;28;20044;-67
2023/03/20 00:10:44;;;;;;;6.10;2.45;;;11.40;99.90;;;;;;5033331;28;20041;-65
2023/03/20 00:13:25;;;;;;;2.83;2.03;;;11.40;99.90;;;;;;5029146;28;20079;-67
2023/03/20 00:15:51;;;;;;;5.93;2.75;;;11.40;99.90;;;;;;5038014;28;20765;-67
2023/03/20 00:18:19;;;;;;;6.43;2.30;;;11.40;99.90;;;;;;5036093;28;20044;-67
2023/03/20 00:20:46;;;;;;;2.72;2.10;;;11.40;99.90;;;;;;5028394;28;20033;-68
2023/03/20 00:23:13;;;;;;;5.03;2.53;;;11.40;99.90;;;;;;5031605;28;20526;-67
2023/03/20 00:25:40;;;;;;;4.57;2.70;;;11.40;99.90;;;;;;5037844;28;20108;-67
2023/03/20 00:28:26;;;;;;;5.35;2.78;;;11.50;99.90;;;;;;5027324;28;20030;-68
2023/03/20 00:30:52;;;;;;;4.10;2.58;;;11.50;99.90;;;;;;5034521;28;20068;-67
2023/03/20 00:33:20;;;;;;;3.05;2.50;;;11.40;99.90;;;;;;5034036;28;20129;-68
2023/03/20 00:35:46;;;;;;;2.95;2.30;;;11.40;99.90;;;;;;5035707;28;20136;-67
2023/03/20 00:38:13;;;;;;;3.35;2.00;;;11.40;99.90;;;;;;5030974;28;20029;-68
2023/03/20 00:40:39;;;;;;;4.13;2.42;;;11.30;99.90;;;;;;5029212;28;20658;-67
2023/03/20 00:43:05;;;;;;;7.60;2.65;;;11.30;99.90;;;;;;5031708;28;20036;-68
2023/03/20 00:45:33;;;;;;;3.15;2.38;;;11.30;99.90;;;;;;5038931;28;20103;-67
2023/03/20 00:47:58;;;;;;;2.90;1.90;;;11.30;99.90;;;;;;5031914;28;20082;-68
2023/03/20 00:50:28;;;;;;;3.53;2.80;;;11.30;99.90;;;;;;5034864;28;20045;-67
2023/03/20 00:52:56;;;;;;;4.97;2.55;;;11.30;99.90;;;;;;5036184;28;20116;-67
2023/03/20 00:55:24;;;;;;;5.32;2.70;;;11.30;99.90;;;;;;5033122;28;20029;-68
2023/03/20 00:57:54;;;;;;;4.93;3.08;;;11.40;99.90;;;;;;5032625;28;20090;-67
2023/03/20 01:00:23;;;;;;;3.95;3.05;;;11.40;99.90;;;;;;5035148;28;20385;-67
2023/03/20 01:02:52;;;;;;;4.18;2.65;;;11.40;99.90;;;;;;5030534;28;20029;-68
2023/03/20 01:05:18;;;;;;;4.18;2.60;;;11.40;99.90;;;;;;5036737;28;20477;-68
2023/03/20 01:07:44;;;;;;;5.40;2.45;;;11.40;99.90;;;;;;5026129;28;20453;-68
2023/03/20 01:10:12;;;;;;;4.70;3.10;;;11.40;99.90;;;;;;5030092;28;20040;-68
2023/03/20 01:12:39;;;;;;;5.55;3.42;;;11.40;99.90;;;;;;5031709;28;20025;-67
2023/03/20 01:15:26;;;;;;;5.07;3.28;;;11.40;99.90;;;;;;5039462;28;20512;-68
2023/03/20 01:17:52;;;;;;;4.03;3.00;;;11.40;99.90;;;;;;5034793;28;20927;-68
2023/03/20 01:20:22;;;;;;;4.75;2.90;;;11.40;99.90;;;;;;5037006;28;20041;-67
2023/03/20 01:22:48;;;;;;;6.28;2.78;;;11.40;99.90;;;;;;5032806;28;20029;-67
2023/03/20 01:25:14;;;;;;;6.13;2.58;;;11.50;99.90;;;;;;5037053;28;20158;-67
2023/03/20 01:27:48;;;;;;;5.13;2.88;;;11.40;99.90;;;;;;5038973;28;20427;-68
2023/03/20 01:30:19;;;;;;;5.00;2.80;;;11.50;99.90;;;;;;5040110;28;20028;-67
2023/03/20 01:32:46;;;;;;;4.90;3.70;;;11.50;99.90;;;;;;5036739;28;20040;-68
2023/03/20 01:35:17;;;;;;;5.10;2.40;;;11.50;99.90;;;;;;5036751;28;20029;-67
2023/03/20 01:37:43;;;;;;;3.95;2.60;;;11.50;99.90;;;;;;5035007;28;20033;-73
2023/03/20 01:40:31;;;;;;;5.03;2.92;;;11.50;99.90;;;;;;5036331;28;20049;-67
2023/03/20 01:42:58;;;;;;;6.40;2.83;;;11.50;99.90;;;;;;5034710;28;20029;-67
2023/03/20 01:45:28;;;;;;;5.72;2.75;;;11.50;99.90;;;;;;5034604;28;20075;-67
2023/03/20 01:47:57;;;;;;;3.95;2.78;;;11.50;99.90;;;;;;5039302;28;20041;-68
2023/03/20 01:50:30;;;;;;;6.65;3.10;;;11.50;99.90;;;;;;5037018;28;20037;-68
2023/03/20 01:53:15;;;;;;;3.58;2.95;;;11.50;99.90;;;;;;5036608;28;20025;-66
2023/03/20 01:55:50;;;;;;;3.65;2.88;;;11.50;99.90;;;;;;5040822;28;20426;-67
2023/03/20 01:58:20;;;;;;;6.32;3.35;;;11.50;99.90;;;;;;5035492;28;20040;-68
2023/03/20 02:00:48;;;;;;;5.82;3.20;;;11.50;99.90;;;;;;5038811;28;20029;-68
2023/03/20 02:03:17;;;;;;;5.57;3.00;;;11.40;99.90;;;;;;5034737;28;20030;-67
2023/03/20 02:06:02;;;;;;;5.60;3.00;;;11.50;99.90;;;;;;5038472;28;20072;-67
2023/03/20 02:08:50;;;;;;;5.55;2.90;;;11.50;99.90;;;;;;5033479;28;20512;-67
2023/03/20 02:11:18;;;;;;;5.55;3.47;;;11.50;99.90;;;;;;5037189;28;20040;-67
2023/03/20 02:13:46;;;;;;;3.95;3.13;;;11.40;99.90;;;;;;5037496;28;20036;-67
2023/03/20 02:16:14;;;;;;;5.95;2.90;;;11.40;99.90;;;;;;5036533;28;20143;-66
2023/03/20 02:19:08;;;;;;;6.03;3.10;;;11.40;99.90;;;;;;5032614;28;20128;-67
2023/03/20 02:22:02;;;;;;;4.72;2.97;;;11.40;99.90;;;;;;5034465;28;20132;-67
2023/03/20 02:24:56;;;;;;;4.22;3.33;;;11.30;99.90;;;;;;5037687;28;20139;-67
2023/03/20 02:28:18;;;;;;;4.13;3.20;;;11.30;99.90;;;;;;5036143;28;20031;-67
2023/03/20 02:31:11;;;;;;;5.07;3.72;;;11.20;99.90;;;;;;5017947;28;20804;-67
2023/03/20 02:33:58;;;;;;;6.72;4.00;;;11.20;99.90;;;;;;5036616;28;20036;-66
2023/03/20 02:37:00;;;;;;;4.68;3.78;;;11.10;99.90;;;;;;5036244;28;20035;-67
2023/03/20 02:39:32;;;;;;;5.10;3.30;;;11.10;99.90;;;;;;5033772;28;20389;-67
2023/03/20 02:42:15;;;;;;;5.65;3.83;;;11.00;99.90;;;;;;5035168;28;20032;-67
2023/03/20 02:44:46;;;;;;;6.15;3.80;;;11.00;99.90;;;;;;5034444;28;20108;-67
2023/03/20 02:47:29;;;;;;;5.25;3.75;;;11.00;99.90;;;;;;5038010;28;20063;-67
2023/03/20 02:50:17;;;;;;;3.78;3.38;;;11.00;99.90;;;;;;5035971;28;20029;-67
2023/03/20 02:52:47;;;;;;;3.85;3.22;;;10.90;99.90;;;;;;5034495;28;20028;-67
2023/03/20 02:55:27;;;;;;;5.88;4.00;;;10.90;99.90;;;;;;5034908;28;20112;-67
2023/03/20 02:58:07;;;;;;;5.40;3.47;;;11.00;99.90;;;;;;5030506;28;20157;-67
2023/03/20 03:00:56;;;;;;;8.20;4.13;;;11.00;99.90;;;;;;5035230;28;20032;-67
2023/03/20 03:03:26;;;;;;;4.65;3.63;;;11.00;99.90;;;;;;5053308;28;20033;-67
2023/03/20 03:05:57;;;;;;;5.45;3.63;;;11.00;99.90;;;;;;5029097;28;20029;-67
2023/03/20 03:08:30;;;;;;;4.63;3.75;;;11.00;99.90;;;;;;5035493;28;20037;-67
2023/03/20 03:11:05;;;;;;;4.63;4.10;;;11.00;99.90;;;;;;5036781;28;20032;-66
2023/03/20 03:13:36;;;;;;;10.13;4.50;;;10.90;99.90;;;;;;5032853;28;20025;-67
2023/03/20 03:16:11;;;;;;;7.35;4.90;;;10.90;99.90;;;;;;5038389;28;20413;-67
2023/03/20 03:18:39;;;;;;;6.90;5.35;;;10.90;99.90;;;;;;5034020;28;20106;-67
2023/03/20 03:21:08;;;;;;;6.43;4.65;;;10.90;99.90;;;;;;5031986;28;20022;-67
2023/03/20 03:23:48;;;;;;;5.88;4.10;;;10.90;99.90;;;;;;5043162;28;20028;-67
2023/03/20 03:26:24;;;;;;;7.25;4.40;;;10.90;99.90;;;;;;5041187;28;20040;-67
2023/03/20 03:28:56;;;;;;;5.85;4.07;;;10.90;99.90;;;;;;5040659;28;20032;-67
2023/03/20 03:31:23;;;;;;;5.45;4.60;;;10.90;99.90;;;;;;5026646;28;20028;-67
2023/03/20 03:33:53;;;;;;;5.50;4.10;;;10.90;99.90;;;;;;5031715;28;20528;-67
2023/03/20 03:36:40;;;;;;;5.05;4.38;;;10.90;99.90;;;;;;5033119;28;20090;-67
2023/03/20 03:39:24;;;;;;;5.70;4.47;;;10.90;99.90;;;;;;5035747;28;20021;-67
2023/03/20 03:42:19;;;;;;;7.50;4.75;;;10.90;99.90;;;;;;5032759;28;20033;-67
2023/03/20 03:44:57;;;;;;;6.97;4.50;;;10.90;99.90;;;;;;5033582;28;20059;-67
2023/03/20 03:47:53;;;;;;;5.53;4.07;;;10.90;99.90;;;;;;5031568;28;20028;-67
2023/03/20 03:50:32;;;;;;;6.47;4.68;;;10.90;99.90;;;;;;5032852;28;20037;-67
2023/03/20 03:53:03;;;;;;;4.78;4.15;;;11.00;99.90;;;;;;5030645;28;20553;-67
2023/03/20 03:55:36;;;;;;;10.20;5.38;;;11.00;99.90;;;;;;5028327;28;20025;-66
2023/03/20 03:58:35;;;;;;;7.40;4.97;;;11.00;99.90;;;;;;5029716;28;20021;-66
2023/03/20 04:01:04;;;;;;;6.15;5.18;;;11.00;99.90;;;;;;5032984;28;20479;-67
2023/03/20 04:03:39;;;;;;;7.45;4.90;;;11.00;99.90;;;;;;5032416;28;20132;-67
2023/03/20 04:06:07;;;;;;;7.78;5.55;;;11.00;99.90;;;;;;5035023;28;20021;-67
2023/03/20 04:08:33;;;;;;;6.40;5.00;;;11.10;99.90;;;;;;5038892;28;20044;-67
2023/03/20 04:10:59;;;;;;;7.20;5.35;;;11.10;99.90;;;;;;5035740;28;20022;-67
2023/03/20 04:13:25;;;;;;;7.43;5.43;;;11.10;99.90;;;;;;5030465;28;20032;-66
2023/03/20 04:15:51;;;;;;;8.80;5.78;;;11.10;99.90;;;;;;5032788;28;20647;-67
2023/03/20 04:18:18;;;;;;;7.78;5.53;;;11.10;99.90;;;;;;5029496;28;20849;-67
2023/03/20 04:20:46;;;;;;;8.10;5.75;;;11.10;99.90;;;;;;5031237;28;20079;-67
2023/03/20 04:23:13;;;;;;;7.93;5.70;;;11.10;99.90;;;;;;5029500;28;20060;-67
2023/03/20 04:25:39;;;;;;;7.65;5.78;;;11.10;99.90;;;;;;5033618;28;20052;-67
2023/03/20 04:28:05;;;;;;;9.75;6.00;;;11.20;99.90;;;;;;5026375;28;20029;-67
2023/03/20 04:30:43;;;;;;;8.82;6.10;;;11.20;99.90;;;;;;5029940;28;20028;-67
2023/03/20 04:33:16;;;;;;;7.88;6.35;;;11.20;99.90;;;;;;5025932;28;20038;-67
2023/03/20 04:35:55;;;;;;;10.35;6.65;;;11.20;99.90;;;;;;5020288;28;20111;-67
2023/03/20 04:38:22;;;;;;;7.10;5.50;;;11.20;99.90;;;;;;5024723;28;20029;-67
2023/03/20 04:40:49;;;;;;;6.65;5.13;;;11.20;99.90;;;;;;5033473;28;20155;-67
2023/03/20 04:43:15;;;;;;;7.18;5.82;;;11.20;99.90;;;;;;5020365;28;20030;-67
2023/03/20 04:45:41;;;;;;;7.72;5.93;;;11.20;99.90;;;;;;5030496;28;20461;-68
2023/03/20 04:48:08;;;;;;;8.18;5.68;;;11.20;99.90;;;;;;5026226;28;20029;-67
2023/03/20 04:50:35;;;;;;;7.63;5.53;;;11.20;99.90;;;;;;5028994;28;20501;-67
2023/03/20 04:53:01;;;;;;;7.47;5.05;;;11.20;99.90;;;;;;5033082;28;20033;-67
2023/03/20 04:55:28;;;;;;;7.90;5.45;;;11.20;99.90;;;;;;5035078;28;20416;-67
2023/03/20 04:57:53;;;;;;;9.30;5.80;;;11.20;99.90;;;;;;5027901;28;20052;-67
2023/03/20 05:00:20;;;;;;;9.02;6.57;;;11.20;99.90;;;;;;5027345;28;20112;-67
2023/03/20 05:02:45;;;;;;;7.60;5.57;;;11.20;99.90;;;;;;5044499;28;20079;-68
2023/03/20 05:05:11;;;;;;;9.68;5.95;;;11.20;99.90;;;;;;5033006;28;20111;-67
2023/03/20 05:07:37;;;;;;;9.02;6.00;;;11.10;99.90;;;;;;5032011;28;20039;-67
2023/03/20 05:10:07;;;;;;;9.80;6.43;;;11.20;99.90;;;;;;5032070;28;20450;-67
2023/03/20 05:12:42;;;;;;;7.97;5.97;;;11.10;99.90;;;;;;5030252;28;20033;-67
2023/03/20 05:15:26;;;;;;;8.80;6.22;;;11.10;99.90;;;;;;5036797;28;20048;-67
2023/03/20 05:18:15;;;;;;;10.02;6.57;;;11.10;99.90;;;;;;5030614;28;20037;-68
2023/03/20 05:21:00;;;;;;;9.07;6.75;;;11.10;99.90;;;;;;5032631;28;20124;-67
2023/03/20 05:23:48;;;;;;;8.40;6.07;;;11.10;99.90;;;;;;5033276;28;20029;-67
2023/03/20 05:26:24;;;;;;;8.80;6.65;;;11.10;99.90;;;;;;5032501;28;20033;-67
2023/03/20 05:28:59;;;;;;;15.57;8.02;;;11.20;99.90;;;;;;5034092;28;20192;-67
2023/03/20 05:31:34;;;;;;;15.35;8.32;;;11.10;99.90;;;;;;5027097;28;20041;-67
2023/03/20 05:34:31;;;;;;;;;;;11.10;99.90;;;;;;5033684;28;20024;-67
2023/03/20 05:37:06;;;;;;;22.08;10.30;;;11.20;99.90;;;;;;5030805;28;19916;-67
2023/03/20 05:39:48;;;;;;;32.92;14.80;;;11.20;99.90;;;;;;5030969;28;20037;-67
2023/03/20 05:42:34;;;;;;;42.03;17.52;;;11.20;99.90;;;;;;5033725;28;20033;-67
2023/03/20 05:45:10;;;;;;;40.38;17.23;;;11.30;99.90;;;;;;5032039;28;20036;-67
2023/03/20 05:47:55;;;;;;;27.65;13.88;;;11.30;99.90;;;;;;5025983;28;20857;-67
2023/03/20 05:50:39;;;;;;;15.10;9.05;;;11.40;99.90;;;;;;5033132;28;20103;-67
2023/03/20 05:53:11;;;;;;;14.88;8.88;;;11.40;99.90;;;;;;5028403;28;20528;-67
2023/03/20 05:55:49;;;;;;;17.17;10.50;;;11.40;99.90;;;;;;5025645;28;20025;-67
2023/03/20 05:58:35;;;;;;;20.17;11.32;;;11.40;99.90;;;;;;5029733;28;20087;-67
2023/03/20 06:01:27;;;;;;;14.60;10.48;;;11.50;99.90;;;;;;5030483;28;20690;-67
2023/03/20 06:04:22;;;;;;;15.10;10.27;;;11.50;99.90;;;;;;5043399;28;20967;-67
2023/03/20 06:07:06;;;;;;;17.75;11.98;;;11.50;99.90;;;;;;5036351;28;20895;-68
2023/03/20 06:09:33;;;;;;;22.63;14.35;;;11.40;99.90;;;;;;5032558;28;20034;-67
2023/03/20 06:12:02;;;;;;;27.63;16.65;;;11.40;99.90;;;;;;5027733;28;20927;-67
2023/03/20 06:14:28;;;;;;;28.13;16.52;;;11.40;99.90;;;;;;5029520;28;20021;-68
2023/03/20 06:16:59;;;;;;;29.98;17.65;;;11.30;99.90;;;;;;5030421;28;20016;-67
2023/03/20 06:19:26;;;;;;;32.50;18.17;;;11.30;99.90;;;;;;5028709;28;20666;-67
2023/03/20 06:21:52;;;;;;;31.35;17.77;;;11.20;99.90;;;;;;5038346;28;20039;-66
2023/03/20 06:24:20;;;;;;;31.33;17.65;;;11.10;99.90;;;;;;5032147;28;20122;-67
2023/03/20 06:26:46;;;;;;;35.38;19.25;;;11.10;99.90;;;;;;5028581;28;20555;-67
2023/03/20 06:29:12;;;;;;;30.67;16.90;;;11.10;99.90;;;;;;5027602;28;20041;-68
2023/03/20 06:31:38;;;;;;;32.22;18.08;;;11.10;99.90;;;;;;5035775;28;20025;-67
2023/03/20 06:34:07;;;;;;;32.78;17.80;;;11.10;99.90;;;;;;5034744;28;20201;-67
2023/03/20 06:36:40;;;;;;;35.15;17.77;;;11.10;99.90;;;;;;5032498;28;20044;-67
2023/03/20 06:39:14;;;;;;;37.65;18.20;;;11.10;99.90;;;;;;5026105;28;20040;-67
2023/03/20 06:41:40;;;;;;;35.20;18.45;;;11.10;99.90;;;;;;5031748;28;20028;-67
2023/03/20 06:44:08;;;;;;;35.03;17.67;;;11.10;99.90;;;;;;5032985;28;20029;-67
2023/03/20 06:46:54;;;;;;;35.80;18.17;;;11.10;99.90;;;;;;5031827;28;20099;-66
2023/03/20 06:49:21;;;;;;;36.97;18.27;;;11.10;99.90;;;;;;5035336;28;20044;-66
2023/03/20 06:51:48;;;;;;;37.58;17.85;;;11.10;99.90;;;;;;5041092;28;20027;-66
2023/03/20 06:54:22;;;;;;;35.58;18.98;;;11.20;99.90;;;;;;5033747;28;20251;-67
2023/03/20 06:56:47;;;;;;;36.65;17.40;;;11.20;99.90;;;;;;5032446;28;20025;-67
2023/03/20 06:59:13;;;;;;;37.65;17.55;;;11.20;99.90;;;;;;5025541;28;20043;-67
2023/03/20 07:01:39;;;;;;;32.38;16.17;;;11.20;99.90;;;;;;5027774;28;20447;-67
2023/03/20 07:04:06;;;;;;;32.30;16.77;;;11.20;99.90;;;;;;5028636;28;20021;-67
2023/03/20 07:06:40;;;;;;;32.03;16.83;;;11.20;99.90;;;;;;5025778;28;20481;-67
2023/03/20 07:09:06;;;;;;;33.90;17.67;;;11.30;99.90;;;;;;5034659;28;20718;-66
2023/03/20 07:11:33;;;;;;;34.05;16.42;;;11.30;99.90;;;;;;5032486;28;20029;-67
2023/03/20 07:14:00;;;;;;;37.45;18.00;;;11.40;99.90;;;;;;5020997;28;20151;-67
2023/03/20 07:16:41;;;;;;;31.42;16.92;;;11.40;99.90;;;;;;5032871;28;20048;-67
2023/03/20 07:19:07;;;;;;;32.92;16.58;;;11.30;99.90;;;;;;5033498;28;20512;-67
2023/03/20 07:21:35;;;;;;;34.63;17.65;;;11.30;99.90;;;;;;5031377;28;20040;-66
2023/03/20 07:24:01;;;;;;;32.92;17.23;;;11.40;99.90;;;;;;5033318;28;20675;-65
2023/03/20 07:26:27;;;;;;;37.45;19.52;;;11.50;99.90;;;;;;5014543;28;20047;-62
2023/03/20 07:28:53;;;;;;;36.03;18.17;;;11.50;99.90;;;;;;5042100;28;20036;-65
2023/03/20 07:31:24;;;;;;;36.33;17.50;;;11.60;99.90;;;;;;5040531;28;20852;-65
2023/03/20 07:34:22;;;;;;;37.10;16.88;;;11.60;99.90;;;;;;5032116;28;20227;-64
2023/03/20 07:36:50;;;;;;;39.78;17.85;;;11.60;99.90;;;;;;5023181;28;20025;-64
2023/03/20 07:39:20;;;;;;;35.03;16.98;;;11.70;99.90;;;;;;5023402;28;20036;-67
2023/03/20 07:41:57;;;;;;;36.47;17.75;;;11.80;99.90;;;;;;5036062;28;20080;-67
2023/03/20 07:44:36;;;;;;;35.25;17.50;;;11.80;99.90;;;;;;5030470;28;20025;-66
2023/03/20 07:47:07;;;;;;;37.75;17.83;;;11.80;99.90;;;;;;5038230;28;20036;-67
2023/03/20 07:49:34;;;;;;;31.50;15.88;;;11.80;99.90;;;;;;5036197;28;20034;-66
2023/03/20 07:52:00;;;;;;;30.95;15.55;;;11.90;99.90;;;;;;5028916;28;20028;-67
2023/03/20 07:54:25;;;;;;;27.50;14.02;;;11.90;99.90;;;;;;5024955;28;20029;-67
2023/03/20 07:56:52;;;;;;;37.65;17.20;;;11.90;99.90;;;;;;5039230;28;20068;-65
2023/03/20 07:59:18;;;;;;;32.72;16.58;;;12.00;99.90;;;;;;5026479;28;20041;-67
2023/03/20 08:01:44;;;;;;;33.20;16.70;;;12.10;99.90;;;;;;5025935;28;20029;-67
2023/03/20 08:04:10;;;;;;;34.80;16.45;;;12.10;99.90;;;;;;5035395;28;20025;-67
2023/03/20 08:06:38;;;;;;;32.55;15.57;;;12.20;99.90;;;;;;5036570;28;20029;-67
2023/03/20 08:09:04;;;;;;;33.25;14.90;;;12.20;99.90;;;;;;5028029;28;20048;-66
2023/03/20 08:11:30;;;;;;;28.45;15.23;;;12.30;99.90;;;;;;5035530;28;20051;-67
2023/03/20 08:13:56;;;;;;;29.73;16.00;;;12.40;99.90;;;;;;5036555;28;20029;-67
2023/03/20 08:16:22;;;;;;;32.45;15.15;;;12.40;99.90;;;;;;5034727;28;20028;-66
2023/03/20 08:18:49;;;;;;;30.10;15.77;;;12.40;99.90;;;;;;5035949;28;20032;-67
2023/03/20 08:21:15;;;;;;;32.15;15.88;;;12.50;99.90;;;;;;5033211;28;20033;-67
2023/03/20 08:23:41;;;;;;;29.92;15.75;;;12.60;99.90;;;;;;5029561;28;20049;-67
2023/03/20 08:26:07;;;;;;;28.45;13.85;;;12.60;99.90;;;;;;5032363;28;20033;-67
2023/03/20 08:28:33;;;;;;;32.10;15.63;;;12.70;99.90;;;;;;5031891;28;20032;-67
2023/03/20 08:30:59;;;;;;;29.52;15.45;;;12.90;99.90;;;;;;5038155;28;20425;-67
2023/03/20 08:33:24;;;;;;;28.95;14.13;;;13.20;99.90;;;;;;5029470;28;20044;-65
2023/03/20 08:35:57;;;;;;;31.73;14.57;;;13.40;99.90;;;;;;5031135;28;20188;-65
2023/03/20 08:38:24;;;;;;;31.77;15.15;;;13.50;99.90;;;;;;5030984;28;20044;-67
2023/03/20 08:40:49;;;;;;;30.88;13.70;;;13.60;99.60;;;;;;5033605;28;20040;-67
2023/03/20 08:43:18;;;;;;;34.63;14.27;;;13.50;99.90;;;;;;5042748;28;20025;-67
2023/03/20 08:45:44;;;;;;;30.95;14.55;;;13.50;99.50;;;;;;5039478;28;20090;-65
2023/03/20 08:48:10;;;;;;;29.02;13.65;;;13.40;99.70;;;;;;5038055;28;20477;-67
2023/03/20 08:50:37;;;;;;;25.25;12.60;;;13.50;99.90;;;;;;5041560;28;20101;-66
2023/03/20 08:53:04;;;;;;;25.38;13.68;;;13.60;99.90;;;;;;5031692;28;20021;-65
2023/03/20 08:55:29;;;;;;;28.10;13.23;;;13.60;99.10;;;;;;5030374;28;20589;-67
2023/03/20 08:57:56;;;;;;;23.70;11.38;;;13.60;99.10;;;;;;5030582;28;20044;-67
2023/03/20 09:00:23;;;;;;;23.73;11.45;;;13.70;99.10;;;;;;5033423;28;20033;-65
2023/03/20 09:02:49;;;;;;;20.48;11.15;;;13.70;99.00;;;;;;5040364;28;20162;-65
2023/03/20 09:05:15;;;;;;;24.15;11.80;;;13.60;99.10;;;;;;5032461;28;20041;-66
2023/03/20 09:07:41;;;;;;;22.55;11.63;;;13.60;98.80;;;;;;5039161;28;20100;-64
2023/03/20 09:10:08;;;;;;;25.67;12.27;;;13.80;98.90;;;;;;5032852;28;20033;-65
2023/03/20 09:12:34;;;;;;;22.40;11.82;;;13.90;98.90;;;;;;5033452;28;20392;-66
2023/03/20 09:15:00;;;;;;;20.50;10.77;;;14.00;98.00;;;;;;5038360;28;20033;-66
2023/03/20 09:17:27;;;;;;;21.45;9.98;;;14.10;97.30;;;;;;5034548;28;21003;-65
2023/03/20 09:19:52;;;;;;;19.90;9.77;;;14.20;97.60;;;;;;5029187;28;20246;-67
2023/03/20 09:22:18;;;;;;;17.25;8.63;;;14.30;97.50;;;;;;5025589;28;20428;-64
2023/03/20 09:24:45;;;;;;;13.50;7.20;;;14.40;96.40;;;;;;5028395;28;20040;-67
2023/03/20 09:27:12;;;;;;;11.10;6.53;;;14.60;95.80;;;;;;5022803;28;20025;-65
2023/03/20 09:29:39;;;;;;;10.80;6.25;;;14.80;94.90;;;;;;5026293;28;20766;-69
2023/03/20 09:32:06;;;;;;;12.32;6.97;;;14.90;94.20;;;;;;5033624;28;20029;-68
2023/03/20 09:34:32;;;;;;;12.90;6.20;;;15.00;93.80;;;;;;5038928;28;20042;-68
2023/03/20 09:36:58;;;;;;;11.55;6.97;;;15.00;94.00;;;;;;5033354;28;20788;-66
2023/03/20 09:39:24;;;;;;;9.45;6.18;;;15.00;94.10;;;;;;5038740;28;20904;-69
2023/03/20 09:41:51;;;;;;;14.23;7.57;;;14.90;93.70;;;;;;5037429;28;20479;-68
2023/03/20 09:44:44;;;;;;;12.95;6.57;;;14.80;93.00;;;;;;5032835;28;20038;-68
2023/03/20 09:47:16;;;;;;;10.77;6.00;;;14.70;93.50;;;;;;5041330;28;20036;-68
2023/03/20 09:50:22;;;;;;;12.43;6.85;;;14.70;94.10;;;;;;5034176;28;20037;-68
2023/03/20 09:53:01;;;;;;;11.98;6.28;;;14.70;94.30;;;;;;5044537;28;20524;-68
2023/03/20 09:55:38;;;;;;;12.15;5.95;;;14.70;93.10;;;;;;5033737;28;20025;-68
2023/03/20 09:58:24;;;;;;;13.80;5.78;;;14.70;93.40;;;;;;5031495;28;20512;-67
2023/03/20 10:00:50;;;;;;;;;;;14.60;93.40;;;;;;5026832;28;20069;-66
2023/03/20 10:03:21;;;;;;;12.13;6.22;;;14.60;93.30;;;;;;5038563;28;19920;-68
2023/03/20 10:06:10;;;;;;;13.20;6.68;;;14.60;92.40;;;;;;5025084;28;20042;-67
2023/03/20 10:08:37;;;;;;;14.00;6.47;;;14.50;92.40;;;;;;5029538;28;20047;-67
2023/03/20 10:11:28;;;;;;;9.85;5.88;;;14.40;93.20;;;;;;5032084;28;20199;-67
2023/03/20 10:14:48;;;;;;;13.10;6.70;;;14.50;93.40;;;;;;5031951;28;20116;-67
2023/03/20 10:17:52;;;;;;;13.73;6.63;;;14.50;93.60;;;;;;5036733;28;20052;-68
2023/03/20 10:20:30;;;;;;;14.57;6.50;;;14.60;93.20;;;;;;5031761;28;20056;-66
2023/03/20 10:23:06;;;;;;;12.43;6.45;;;14.80;93.90;;;;;;5035573;28;20040;-68
2023/03/20 10:25:41;;;;;;;13.20;6.90;;;14.90;93.20;;;;;;5027441;28;20090;-67
2023/03/20 10:28:33;;;;;;;10.25;5.75;;;15.00;92.00;;;;;;5032475;28;20464;-68
2023/03/20 10:31:22;;;;;;;12.85;6.18;;;15.00;92.40;;;;;;5035844;28;20037;-68
2023/03/20 10:33:56;;;;;;;10.95;6.07;;;14.90;92.40;;;;;;5021436;28;20041;-68
2023/03/20 10:36:40;;;;;;;14.23;5.82;;;14.90;92.20;;;;;;5025515;28;20040;-68
2023/03/20 10:39:09;;;;;;;10.88;5.70;;;14.90;92.20;;;;;;5038104;28;20037;-66
2023/03/20 10:41:38;;;;;;;13.35;7.07;;;14.80;92.30;;;;;;5032633;28;20056;-65
2023/03/20 10:44:09;;;;;;;12.20;6.47;;;14.80;92.90;;;;;;5028639;28;20119;-67
2023/03/20 10:46:42;;;;;;;13.75;7.25;;;14.70;93.00;;;;;;5035737;28;20033;-67
2023/03/20 10:49:28;;;;;;;18.48;7.53;;;14.70;92.20;;;;;;5037423;28;20032;-66
2023/03/20 10:51:58;;;;;;;14.70;7.53;;;14.50;92.90;;;;;;5030192;28;20029;-65
2023/03/20 10:54:32;;;;;;;12.55;6.80;;;14.40;93.10;;;;;;5029437;28;20811;-67
2023/03/20 10:57:01;;;;;;;17.00;7.13;;;14.40;92.90;;;;;;5035176;28;20033;-66
2023/03/20 10:59:39;;;;;;;12.73;6.97;;;14.30;93.40;;;;;;5033826;28;20044;-66
2023/03/20 11:02:13;;;;;;;10.40;6.40;;;14.30;93.50;;;;;;5028697;28;20512;-65
2023/03/20 11:04:39;;;;;;;10.80;6.68;;;14.40;93.60;;;;;;5029516;28;20028;-68
2023/03/20 11:07:24;;;;;;;14.68;7.28;;;14.40;93.60;;;;;;5023677;28;20451;-65
2023/03/20 11:10:09;;;;;;;14.25;6.50;;;14.50;92.80;;;;;;5033091;28;20385;-67
2023/03/20 11:12:46;;;;;;;15.10;7.07;;;14.40;92.90;;;;;;5033140;28;20141;-67
2023/03/20 11:15:19;;;;;;;13.20;6.82;;;14.50;92.60;;;;;;5024366;28;20028;-67
2023/03/20 11:18:06;;;;;;;14.00;6.55;;;14.50;92.80;;;;;;5026955;28;20040;-67
2023/03/20 11:20:38;;;;;;;11.95;6.57;;;14.60;92.60;;;;;;5036267;28;20671;-68
2023/03/20 11:23:07;;;;;;;16.38;6.95;;;14.60;92.30;;;;;;5029435;28;20101;-67
2023/03/20 11:25:54;;;;;;;14.63;7.78;;;14.70;92.60;;;;;;5037400;28;20070;-67
2023/03/20 11:28:31;;;;;;;15.13;7.70;;;14.80;92.00;;;;;;5031543;28;20069;-67
2023/03/20 11:31:05;;;;;;;14.60;6.88;;;14.80;91.30;;;;;;5029770;28;20025;-68
2023/03/20 11:33:36;;;;;;;12.68;6.75;;;14.80;91.40;;;;;;5033965;28;20414;-67
2023/03/20 11:36:28;;;;;;;12.35;6.07;;;14.80;91.30;;;;;;5034450;28;20275;-67
2023/03/20 11:39:04;;;;;;;9.32;5.45;;;14.90;91.50;;;;;;5025951;28;20033;-68
2023/03/20 11:41:30;;;;;;;;;;;14.90;91.30;;;;;;5027467;28;20094;-65
2023/03/20 11:43:56;;;;;;;14.52;7.13;;;14.90;91.00;;;;;;5027795;28;19908;-68
2023/03/20 11:46:24;;;;;;;10.60;6.70;;;14.90;91.20;;;;;;5029343;28;20833;-68
2023/03/20 11:49:23;;;;;;;13.52;6.88;;;14.90;90.70;;;;;;5026811;28;20465;-67
2023/03/20 11:51:51;;;;;;;11.93;5.95;;;14.80;90.70;;;;;;5030445;28;20302;-67
2023/03/20 11:54:22;;;;;;;14.57;7.43;;;14.70;90.90;;;;;;5039302;28;20087;-67
2023/03/20 11:56:57;;;;;;;13.30;7.07;;;14.70;91.40;;;;;;5030099;28;20025;-68
2023/03/20 11:59:33;;;;;;;16.83;7.38;;;14.70;91.40;;;;;;5027007;28;20035;-68
2023/03/20 12:02:03;;;;;;;15.07;8.05;;;14.80;91.80;;;;;;5032046;28;20029;-68
2023/03/20 12:04:41;;;;;;;16.50;8.18;;;14.90;91.40;;;;;;5042037;28;20508;-68
2023/03/20 12:07:31;;;;;;;17.80;8.80;;;14.90;90.90;;;;;;5041692;28;20032;-68
2023/03/20 12:10:11;;;;;;;18.75;8.73;;;14.80;91.30;;;;;;5041983;28;20033;-66
2023/03/20 12:12:40;;;;;;;20.90;10.80;;;14.90;91.10;;;;;;5038310;28;20033;-65
2023/03/20 12:15:11;;;;;;;16.30;8.05;;;15.00;90.50;;;;;;5028223;28;20108;-66
2023/03/20 12:17:43;;;;;;;15.93;9.10;;;15.00;91.00;;;;;;5036934;28;20029;-65
2023/03/20 12:20:24;;;;;;;13.95;8.50;;;15.00;90.50;;;;;;5039397;28;20108;-66
2023/03/20 12:23:30;;;;;;;26.02;14.98;;;14.90;90.10;;;;;;5038292;28;20039;-66
2023/03/20 12:26:01;;;;;;;17.73;8.75;;;14.90;91.30;;;;;;5041597;28;20370;-66
2023/03/20 12:28:46;;;;;;;25.63;12.57;;;15.00;90.30;;;;;;5038640;28;20033;-67
2023/03/20 12:31:33;;;;;;;23.98;11.00;;;15.10;89.90;;;;;;5027918;28;20069;-66
2023/03/20 12:34:22;;;;;;;14.13;8.40;;;15.30;90.00;;;;;;5027676;28;20774;-69
2023/03/20 12:36:56;;;;;;;86.13;33.83;;;15.50;88.50;;;;;;5032667;28;20036;-66
2023/03/20 12:39:55;;;;;;;41.50;21.95;;;15.50;87.80;;;;;;5035123;28;20037;-66
2023/03/20 12:42:28;;;;;;;15.95;9.32;;;15.40;87.50;;;;;;5038017;28;20685;-65
2023/03/20 12:45:20;;;;;;;21.45;11.60;;;15.30;89.30;;;;;;5046290;28;20033;-65
2023/03/20 12:48:06;;;;;;;19.60;9.77;;;15.00;89.50;;;;;;5029718;28;20095;-66
2023/03/20 12:51:05;;;;;;;21.33;9.88;;;15.00;90.10;;;;;;5038707;28;20144;-66
2023/03/20 12:54:00;;;;;;;18.60;9.85;;;15.00;90.00;;;;;;5034917;28;20052;-66
2023/03/20 12:56:46;;;;;;;17.17;8.82;;;15.00;89.40;;;;;;5033155;28;20021;-66
2023/03/20 12:59:31;;;;;;;19.00;9.00;;;15.10;90.10;;;;;;5033563;28;20037;-66
2023/03/20 13:02:29;;;;;;;16.38;8.80;;;15.20;90.50;;;;;;5037769;28;20033;-64
2023/03/20 13:05:05;;;;;;;22.80;11.38;;;15.30;90.20;;;;;;5034244;28;20048;-66
2023/03/20 13:08:06;;;;;;;23.95;10.60;;;15.40;89.70;;;;;;5034734;28;20025;-66
2023/03/20 13:11:09;;;;;;;22.65;11.93;;;15.50;89.40;;;;;;5032697;28;20058;-66
2023/03/20 13:13:55;;;;;;;25.33;15.70;;;15.50;89.50;;;;;;5037679;28;20516;-67